createdAt,value
2023-01-18T00:05:00.408Z,4.00
2023-01-18T00:11:19.248Z,4.10
2023-01-18T00:17:13.595Z,4.00
2023-01-18T00:23:08.108Z,3.90
2023-01-18T00:29:38.615Z,3.90
2023-01-18T00:36:00.422Z,4.00
2023-01-18T00:42:13.182Z,4.00
2023-01-18T00:48:07.643Z,4.10
2023-01-18T00:54:26.199Z,4.10
2023-01-18T01:00:44.619Z,4.00
2023-01-18T01:06:45.430Z,4.00
2023-01-18T01:12:58.827Z,4.00
2023-01-18T01:19:36.159Z,4.00
2023-01-18T01:26:07.874Z,4.10
2023-01-18T01:32:03.536Z,4.10
2023-01-18T01:37:58.066Z,4.20
2023-01-18T01:44:24.461Z,4.20
2023-01-18T01:50:43.804Z,4.20
2023-01-18T01:56:38.313Z,4.20
2023-01-18T02:02:32.903Z,4.20
2023-01-18T02:08:51.420Z,4.30
2023-01-18T02:15:10.147Z,4.20
2023-01-18T02:21:04.547Z,4.20
2023-01-18T02:27:28.209Z,4.10
2023-01-18T02:34:13.640Z,4.20
2023-01-18T02:40:45.514Z,4.30
2023-01-18T02:46:40.503Z,4.40
2023-01-18T02:52:40.928Z,4.30
2023-01-18T02:59:21.834Z,4.30
2023-01-18T03:05:40.213Z,4.40
2023-01-18T03:11:49.866Z,4.40
2023-01-18T03:17:50.327Z,4.50
2023-01-18T03:24:09.580Z,4.50
2023-01-18T03:30:47.178Z,4.50
2023-01-18T03:36:42.039Z,4.50
2023-01-18T03:43:08.016Z,4.40
2023-01-18T03:49:27.577Z,4.40
2023-01-18T03:55:49.153Z,4.40
2023-01-18T04:01:48.250Z,4.50
2023-01-18T04:07:42.999Z,4.60
2023-01-18T04:14:01.474Z,4.50
2023-01-18T04:20:19.836Z,4.50
2023-01-18T04:26:16.780Z,4.50
2023-01-18T04:32:11.299Z,4.50
2023-01-18T04:38:42.769Z,4.50
2023-01-18T04:45:01.159Z,4.50
2023-01-18T04:50:55.539Z,4.50
2023-01-18T04:56:50.086Z,4.60
2023-01-18T05:03:09.372Z,4.50
2023-01-18T05:09:27.812Z,4.60
2023-01-18T05:15:22.203Z,4.60
2023-01-18T05:21:16.770Z,4.10
2023-01-18T05:27:35.296Z,3.50
2023-01-18T05:33:53.641Z,3.10
2023-01-18T05:39:48.017Z,2.80
2023-01-18T05:45:42.803Z,2.80
2023-01-18T05:52:02.273Z,2.70
2023-01-18T05:58:20.627Z,2.60
2023-01-18T06:04:15.046Z,2.50
2023-01-18T06:10:10.089Z,2.40
2023-01-18T06:16:28.683Z,2.40
2023-01-18T06:22:47.042Z,2.30
2023-01-18T06:28:41.405Z,2.20
2023-01-18T06:34:36.922Z,2.20
2023-01-18T06:41:08.859Z,2.20
2023-01-18T06:47:27.241Z,2.20
2023-01-18T06:53:21.649Z,2.10
2023-01-18T06:59:16.454Z,2.00
2023-01-18T07:05:34.946Z,2.10
2023-01-18T07:11:53.356Z,2.20
2023-01-18T07:17:47.953Z,2.20
2023-01-18T07:23:42.713Z,2.10
2023-01-18T07:30:01.214Z,2.10
2023-01-18T07:36:20.743Z,2.10
2023-01-18T07:42:15.170Z,2.00
2023-01-18T07:50:00.833Z,1.90
2023-01-18T07:56:19.415Z,1.80
2023-01-18T08:02:37.807Z,1.80
2023-01-18T08:08:32.265Z,1.80
2023-01-18T08:14:26.783Z,1.80
2023-01-18T08:20:48.820Z,1.90
2023-01-18T08:27:07.429Z,2.10
2023-01-18T08:33:02.040Z,2.20
2023-01-18T08:38:59.363Z,2.30
2023-01-18T08:45:30.040Z,2.50
2023-01-18T08:51:48.431Z,2.70
2023-01-18T08:57:42.790Z,2.80
2023-01-18T09:03:37.593Z,2.70
2023-01-18T09:09:56.084Z,2.80
2023-01-18T09:16:14.647Z,3.00
2023-01-18T09:22:09.066Z,3.10
2023-01-18T09:28:04.405Z,3.30
2023-01-18T09:34:23.435Z,3.50
2023-01-18T09:40:44.172Z,3.80
2023-01-18T09:46:39.897Z,3.80
2023-01-18T09:52:48.638Z,4.00
2023-01-18T09:59:15.915Z,4.20
2023-01-18T10:05:37.890Z,4.30
2023-01-18T10:11:44.943Z,4.40
2023-01-18T10:17:42.621Z,4.40
2023-01-18T10:24:01.741Z,4.50
2023-01-18T10:30:23.111Z,4.50
2023-01-18T10:36:18.938Z,4.70
2023-01-18T10:42:29.282Z,5.00
2023-01-18T10:48:59.881Z,5.20
2023-01-18T10:55:19.213Z,5.20
2023-01-18T11:01:15.441Z,5.40
2023-01-18T11:07:10.318Z,5.20
2023-01-18T11:13:32.387Z,5.20
2023-01-18T11:20:05.436Z,5.20
2023-01-18T11:26:01.381Z,5.30
2023-01-18T11:32:00.392Z,5.10
2023-01-18T11:38:18.936Z,5.20
2023-01-18T11:44:38.753Z,5.50
2023-01-18T11:50:36.075Z,5.60
2023-01-18T11:56:51.539Z,5.40
2023-01-18T12:03:19.025Z,5.30
2023-01-18T12:09:43.288Z,5.60
2023-01-18T12:15:52.040Z,5.60
2023-01-18T12:22:05.941Z,5.40
2023-01-18T12:28:34.345Z,5.50
2023-01-18T12:35:15.576Z,5.90
2023-01-18T12:41:29.286Z,5.70
2023-01-18T12:47:52.365Z,5.50
2023-01-18T12:54:28.737Z,5.90
2023-01-18T13:00:54.663Z,6.30
2023-01-18T13:06:49.204Z,6.20
2023-01-18T13:12:44.755Z,6.30
2023-01-18T13:19:05.640Z,6.20
2023-01-18T13:25:32.550Z,6.40
2023-01-18T13:31:30.409Z,6.80
2023-01-18T13:37:53.399Z,6.80
2023-01-18T13:44:47.211Z,6.40
2023-01-18T13:51:07.336Z,6.50
2023-01-18T13:57:05.663Z,6.40
2023-01-18T14:03:17.059Z,6.50
2023-01-18T14:09:40.054Z,6.70
2023-01-18T14:16:00.341Z,6.50
2023-01-18T14:21:57.833Z,6.40
2023-01-18T14:28:13.660Z,6.30
2023-01-18T14:34:44.850Z,6.30
2023-01-18T14:41:05.098Z,6.40
2023-01-18T14:47:01.473Z,6.20
2023-01-18T14:53:00.696Z,6.00
2023-01-18T14:59:32.228Z,6.00
2023-01-18T15:05:51.227Z,6.10
2023-01-18T15:11:45.612Z,6.00
2023-01-18T15:17:40.068Z,5.90
2023-01-18T15:24:05.427Z,5.80
2023-01-18T15:30:24.975Z,5.70
2023-01-18T15:36:19.412Z,5.70
2023-01-18T15:42:13.886Z,5.50
2023-01-18T15:48:37.282Z,5.50
2023-01-18T15:54:55.725Z,5.60
2023-01-18T16:00:54.218Z,5.60
2023-01-18T16:06:48.944Z,5.50
2023-01-18T16:13:34.770Z,5.60
2023-01-18T16:19:53.890Z,5.50
2023-01-18T16:25:52.149Z,5.40
2023-01-18T16:31:48.739Z,5.30
2023-01-18T16:38:14.040Z,5.20
2023-01-18T16:44:32.602Z,5.10
2023-01-18T16:50:27.001Z,5.00
2023-01-18T16:56:22.095Z,5.00
2023-01-18T17:02:53.658Z,5.00
2023-01-18T17:09:24.870Z,5.00
2023-01-18T17:15:20.216Z,4.90
2023-01-18T17:21:14.877Z,4.80
2023-01-18T17:27:34.485Z,4.80
2023-01-18T17:33:53.401Z,4.90
2023-01-18T17:40:02.517Z,4.90
2023-01-18T17:46:01.879Z,4.80
2023-01-18T17:52:20.747Z,4.80
2023-01-18T17:58:39.205Z,4.80
2023-01-18T18:04:33.568Z,4.80
2023-01-18T18:10:28.106Z,4.70
2023-01-18T18:16:46.708Z,4.90
2023-01-18T18:23:05.094Z,4.90
2023-01-18T18:28:59.453Z,4.90
2023-01-18T18:34:54.115Z,4.80
2023-01-18T18:41:12.609Z,4.90
2023-01-18T18:47:31.206Z,5.00
2023-01-18T18:53:37.015Z,5.30
2023-01-18T18:59:32.521Z,5.50
2023-01-18T19:06:03.025Z,5.70
2023-01-18T19:12:21.416Z,5.80
2023-01-18T19:18:15.810Z,5.80
2023-01-18T19:24:10.331Z,5.80
2023-01-18T19:30:30.325Z,5.80
2023-01-18T19:36:49.235Z,5.90
2023-01-18T19:42:47.133Z,6.00
2023-01-18T19:48:41.673Z,5.90
2023-01-18T19:55:00.456Z,5.90
2023-01-18T20:01:34.653Z,5.90
2023-01-18T20:07:31.231Z,5.90
2023-01-18T20:13:26.903Z,5.80
2023-01-18T20:19:45.540Z,5.80
2023-01-18T20:26:07.508Z,5.80
2023-01-18T20:32:13.471Z,5.70
2023-01-18T20:38:09.757Z,5.70
2023-01-18T20:44:28.642Z,5.80
2023-01-18T20:50:47.299Z,5.90
2023-01-18T20:56:42.664Z,5.90
2023-01-18T21:02:37.212Z,6.00
2023-01-18T21:09:07.724Z,6.00
2023-01-18T21:15:27.633Z,6.10
2023-01-18T21:21:22.361Z,6.20
2023-01-18T21:27:17.103Z,6.10
2023-01-18T21:33:35.700Z,6.20
2023-01-18T21:39:54.081Z,6.30
2023-01-18T21:45:57.743Z,6.30
2023-01-18T21:52:10.655Z,6.20
2023-01-18T21:58:47.908Z,6.30
2023-01-18T22:05:10.842Z,6.20
2023-01-18T22:11:06.268Z,6.20
2023-01-18T22:17:00.736Z,6.10
2023-01-18T22:23:19.392Z,6.10
2023-01-18T22:29:38.025Z,6.10
2023-01-18T22:35:32.426Z,5.90
2023-01-18T22:41:27.815Z,6.00
2023-01-18T22:47:46.411Z,6.00
2023-01-18T22:54:04.800Z,6.20
2023-01-18T22:59:59.163Z,6.00
2023-01-18T23:05:57.295Z,5.90
2023-01-18T23:12:27.731Z,5.90
2023-01-18T23:18:46.111Z,6.00
2023-01-18T23:24:40.475Z,6.00
2023-01-18T23:30:36.018Z,5.90
2023-01-18T23:36:54.519Z,6.10
2023-01-18T23:43:32.464Z,6.20
2023-01-18T23:49:45.205Z,6.20
2023-01-18T23:55:39.699Z,6.20
